Time;durP1;ratioP1;P1;durP2;ratioP2;P2;SDS_P1;SDS_P2;PMS_P1;PMS_P2;Temp;Humidity;BMP_temperature;BMP_pressure;BME280_temperature;BME280_humidity;BME280_pressure;Samples;Min_cycle;Max_cycle;Signal;HPM_P1;HPM_P2
2020/12/02 00:00:54;;;;;;;49.38;21.88;;;;;;;0.61;77.52;96411.47;5032236;28;20556;-68
2020/12/02 00:03:25;;;;;;;50.33;21.27;;;;;;;0.63;77.52;96409.34;5031913;28;20416;-68
2020/12/02 00:05:53;;;;;;;53.03;21.70;;;;;;;0.65;77.63;96411.78;5032623;28;20076;-68
2020/12/02 00:08:23;;;;;;;52.65;21.88;;;;;;;0.61;77.46;96414.13;5032214;28;20049;-68
2020/12/02 00:10:48;;;;;;;55.83;22.45;;;;;;;0.56;77.21;96414.09;5032625;28;20390;-68
2020/12/02 00:13:18;;;;;;;52.97;21.88;;;;;;;0.49;77.36;96414.28;5031989;28;20050;-68
2020/12/02 00:15:45;;;;;;;56.90;22.50;;;;;;;0.47;77.64;96416.44;5032307;28;20052;-68
2020/12/02 00:18:11;;;;;;;56.15;22.38;;;;;;;0.48;77.54;96422.59;5032080;28;20046;-68
2020/12/02 00:20:37;;;;;;;56.33;22.67;;;;;;;0.47;77.56;96423.63;5032292;28;20042;-67
2020/12/02 00:23:04;;;;;;;56.60;22.30;;;;;;;0.43;77.78;96420.66;5031941;28;20080;-68
2020/12/02 00:25:30;;;;;;;58.90;22.52;;;;;;;0.43;77.76;96430.56;5031145;28;20041;-68
2020/12/02 00:28:01;;;;;;;53.55;21.60;;;;;;;0.45;77.87;96428.44;5045219;28;20495;-67
2020/12/02 00:30:27;;;;;;;61.20;22.88;;;;;;;0.42;77.80;96423.59;5051979;28;20071;-68
2020/12/02 00:33:06;;;;;;;54.83;21.25;;;;;;;0.40;77.93;96428.38;5052089;28;20053;-68
2020/12/02 00:35:32;;;;;;;54.03;22.00;;;;;;;0.36;77.80;96424.59;5051835;28;20033;-68
2020/12/02 00:37:57;;;;;;;58.08;22.90;;;;;;;0.29;77.93;96421.31;5051904;28;20056;-68
2020/12/02 00:40:23;;;;;;;54.67;22.65;;;;;;;0.32;78.04;96413.59;5051210;28;20069;-68
2020/12/02 00:42:49;;;;;;;65.05;24.27;;;;;;;0.29;78.22;96411.41;5051674;28;20041;-68
2020/12/02 00:45:15;;;;;;;55.28;22.50;;;;;;;0.29;78.10;96418.63;5051364;28;20049;-68
2020/12/02 00:47:41;;;;;;;62.80;24.02;;;;;;;0.18;77.87;96418.50;5051726;28;20095;-68
2020/12/02 00:50:09;;;;;;;56.13;22.50;;;;;;;0.17;78.15;96422.25;5051220;28;20052;-68
2020/12/02 00:52:36;;;;;;;59.00;23.83;;;;;;;0.16;78.03;96423.31;5051523;28;20389;-68
2020/12/02 00:55:02;;;;;;;57.80;24.85;;;;;;;0.17;78.19;96430.28;5051066;28;20051;-68
2020/12/02 00:57:32;;;;;;;55.80;22.52;;;;;;;0.20;78.13;96426.28;5039986;28;20049;-68
2020/12/02 00:59:59;;;;;;;61.72;23.88;;;;;;;0.20;77.91;96427.09;5031483;28;20048;-68
2020/12/02 01:02:33;;;;;;;57.60;22.38;;;;;;;0.16;78.02;96425.19;5031100;28;20046;-68
2020/12/02 01:05:00;;;;;;;62.83;23.08;;;;;;;0.13;78.10;96423.81;5031358;28;20042;-68
2020/12/02 01:07:28;;;;;;;54.63;22.10;;;;;;;0.12;78.23;96419.50;5031297;28;21054;-68
2020/12/02 01:09:54;;;;;;;60.88;23.52;;;;;;;0.13;78.34;96420.31;5031546;28;20096;-68
2020/12/02 01:12:20;;;;;;;59.35;23.38;;;;;;;0.14;78.40;96422.75;5030803;28;20045;-68
2020/12/02 01:14:47;;;;;;;62.75;22.70;;;;;;;0.13;78.37;96417.66;5031381;28;20041;-67
2020/12/02 01:17:14;;;;;;;53.90;20.33;;;;;;;0.09;78.31;96419.19;5030827;28;20049;-68
2020/12/02 01:19:40;;;;;;;55.80;22.00;;;;;;;0.08;78.31;96418.38;5031278;28;20041;-68
2020/12/02 01:22:14;;;;;;;47.95;19.10;;;;;;;0.12;78.32;96422.19;5030865;28;20045;-68
2020/12/02 01:24:49;;;;;;;49.25;19.20;;;;;;;0.07;77.80;96427.50;5031215;28;20069;-68
2020/12/02 01:27:22;;;;;;;44.30;18.30;;;;;;;0.06;77.46;96420.53;5038051;28;20080;-68
2020/12/02 01:29:50;;;;;;;47.92;18.48;;;;;;;0.04;77.30;96414.59;5051038;28;20076;-68
2020/12/02 01:32:16;;;;;;;41.58;17.70;;;;;;;0.03;77.14;96415.66;5050477;28;20049;-68
2020/12/02 01:34:47;;;;;;;42.50;17.02;;;;;;;0.01;76.77;96412.44;5050845;28;20435;-68
2020/12/02 01:37:27;;;;;;;41.70;17.30;;;;;;;-0.03;76.84;96414.78;5050158;28;20595;-68
2020/12/02 01:40:13;;;;;;;46.95;18.33;;;;;;;-0.05;76.88;96414.22;5050655;28;20041;-67
2020/12/02 01:42:41;;;;;;;46.85;19.30;;;;;;;-0.07;77.04;96418.19;5050506;28;20681;-68
2020/12/02 01:45:15;;;;;;;49.58;19.65;;;;;;;-0.06;77.44;96409.09;5050177;28;20056;-68
2020/12/02 01:47:52;;;;;;;47.95;20.27;;;;;;;-0.05;77.53;96408.06;5050671;28;20048;-67
2020/12/02 01:50:26;;;;;;;52.25;20.30;;;;;;;-0.06;77.44;96406.44;5050153;28;20492;-68
2020/12/02 01:53:03;;;;;;;48.15;18.88;;;;;;;-0.10;77.09;96400.78;5050547;28;20045;-68
2020/12/02 01:55:34;;;;;;;51.33;20.58;;;;;;;-0.15;77.01;96403.41;5050216;28;20036;-68
2020/12/02 01:58:10;;;;;;;51.00;19.38;;;;;;;-0.17;76.83;96399.34;5034455;28;20041;-68
2020/12/02 02:00:40;;;;;;;42.80;19.42;;;;;;;-0.22;76.92;96393.91;5030347;28;20583;-68
2020/12/02 02:03:11;;;;;;;55.65;21.45;;;;;;;-0.23;77.13;96394.97;5029559;28;20502;-68
2020/12/02 02:05:44;;;;;;;59.38;21.20;;;;;;;-0.29;77.15;96392.25;5030333;28;20041;-68
2020/12/02 02:08:10;;;;;;;53.83;21.05;;;;;;;-0.33;77.37;96391.09;5029813;28;20045;-68
2020/12/02 02:10:40;;;;;;;59.83;22.42;;;;;;;-0.33;77.42;96388.44;5030163;28;20045;-68
2020/12/02 02:13:51;;;;;;;60.67;23.92;;;;;;;-0.30;77.52;96390.63;5029853;28;20052;-68
2020/12/02 02:16:22;;;;;;;59.90;22.25;;;;;;;-0.27;77.54;96384.75;5029749;28;20076;-68
2020/12/02 02:18:48;;;;;;;54.22;21.13;;;;;;;-0.25;76.92;96381.84;5030333;28;20053;-67
2020/12/02 02:21:17;;;;;;;61.47;21.75;;;;;;;-0.30;76.95;96379.91;5029696;28;20048;-68
2020/12/02 02:23:44;;;;;;;54.92;22.20;;;;;;;-0.35;76.81;96387.06;5030191;28;20041;-68
2020/12/02 02:26:19;;;;;;;61.08;22.75;;;;;;;-0.40;77.22;96385.13;5029465;28;20691;-67
2020/12/02 02:28:50;;;;;;;56.92;21.50;;;;;;;-0.37;76.94;96373.94;5010266;28;20041;-68
2020/12/02 02:31:20;;;;;;;55.67;22.85;;;;;;;-0.42;76.68;96378.41;5009903;28;20058;-67
2020/12/02 02:33:47;;;;;;;63.33;24.00;;;;;;;-0.45;76.77;96376.25;5010313;28;20042;-67
2020/12/02 02:36:14;;;;;;;65.15;23.67;;;;;;;-0.51;76.82;96379.91;5009638;28;20407;-68
2020/12/02 02:38:41;;;;;;;66.10;22.95;;;;;;;-0.54;77.09;96383.88;5010043;28;20061;-68
2020/12/02 02:41:09;;;;;;;58.45;23.38;;;;;;;-0.55;77.13;96382.25;5009709;28;20497;-68
2020/12/02 02:43:37;;;;;;;63.83;23.58;;;;;;;-0.56;77.05;96380.66;5010166;28;20053;-68
2020/12/02 02:46:04;;;;;;;58.78;22.80;;;;;;;-0.59;77.50;96375.78;5009467;28;20046;-68
2020/12/02 02:48:31;;;;;;;62.15;23.65;;;;;;;-0.55;77.60;96377.72;5009666;28;20045;-68
2020/12/02 02:50:57;;;;;;;65.28;23.60;;;;;;;-0.51;77.56;96383.38;5009864;28;20489;-68
2020/12/02 02:53:25;;;;;;;65.47;23.05;;;;;;;-0.50;77.45;96390.34;5009729;28;20056;-67
2020/12/02 02:55:54;;;;;;;61.80;23.27;;;;;;;-0.51;77.47;96383.38;5032937;28;20041;-68
2020/12/02 02:58:25;;;;;;;64.88;22.73;;;;;;;-0.47;77.47;96379.16;5049047;28;20416;-67
2020/12/02 03:00:52;;;;;;;67.35;23.15;;;;;;;-0.48;77.56;96380.19;5049493;28;20047;-68
2020/12/02 03:03:19;;;;;;;65.80;23.30;;;;;;;-0.47;77.66;96373.81;5049015;28;20110;-68
2020/12/02 03:05:46;;;;;;;66.70;22.42;;;;;;;-0.52;77.66;96381.78;5049340;28;20657;-68
2020/12/02 03:08:13;;;;;;;64.82;25.45;;;;;;;-0.58;77.82;96382.75;5048859;28;20041;-68
2020/12/02 03:10:41;;;;;;;79.03;24.48;;;;;;;-0.61;77.79;96377.91;5049463;28;20048;-68
2020/12/02 03:13:18;;;;;;;69.10;24.13;;;;;;;-0.65;78.14;96374.91;5048988;28;20049;-68
2020/12/02 03:15:45;;;;;;;83.78;25.33;;;;;;;-0.66;78.41;96375.16;5048914;28;20052;-68
2020/12/02 03:18:12;;;;;;;89.43;24.08;;;;;;;-0.63;78.78;96378.13;5048863;28;20037;-68
2020/12/02 03:20:42;;;;;;;87.88;24.13;;;;;;;-0.59;78.86;96370.44;5049610;28;20041;-68
2020/12/02 03:23:10;;;;;;;67.07;24.23;;;;;;;-0.51;78.87;96378.03;5048982;28;20045;-68
2020/12/02 03:25:38;;;;;;;68.18;23.73;;;;;;;-0.56;78.68;96375.28;5037600;28;20065;-67
2020/12/02 03:28:04;;;;;;;64.30;23.38;;;;;;;-0.54;78.76;96378.53;5029012;28;20381;-68
2020/12/02 03:30:31;;;;;;;63.25;23.10;;;;;;;-0.52;78.57;96371.06;5029394;28;20044;-67
2020/12/02 03:32:57;;;;;;;69.85;24.23;;;;;;;-0.47;78.65;96373.81;5029364;28;20046;-68
2020/12/02 03:35:24;;;;;;;63.38;21.50;;;;;;;-0.46;78.61;96375.44;5028718;28;20377;-67
2020/12/02 03:37:50;;;;;;;59.50;22.13;;;;;;;-0.45;78.37;96381.59;5029334;28;20049;-68
2020/12/02 03:40:15;;;;;;;63.13;23.92;;;;;;;-0.40;78.30;96369.09;5028522;28;20524;-67
2020/12/02 03:42:41;;;;;;;57.40;21.10;;;;;;;-0.40;77.97;96374.44;5029307;28;20049;-68
2020/12/02 03:45:09;;;;;;;59.13;21.30;;;;;;;-0.42;77.83;96373.84;5028657;28;20041;-68
2020/12/02 03:47:36;;;;;;;60.47;23.38;;;;;;;-0.40;78.08;96374.44;5029189;28;20053;-67
2020/12/02 03:50:03;;;;;;;63.65;22.60;;;;;;;-0.36;77.79;96380.91;5028570;28;20049;-68
2020/12/02 03:52:30;;;;;;;59.38;22.92;;;;;;;-0.32;77.68;96376.66;5029212;28;20432;-68
2020/12/02 03:54:56;;;;;;;58.63;22.05;;;;;;;-0.32;77.61;96371.31;5032394;28;20045;-67
2020/12/02 03:57:22;;;;;;;54.55;20.20;;;;;;;-0.53;77.59;96367.56;5048396;28;20466;-67
2020/12/02 03:59:47;;;;;;;50.97;19.40;;;;;;;-0.50;77.67;96358.25;5050306;28;20045;-67
2020/12/02 04:02:13;;;;;;;50.05;19.45;;;;;;;-0.46;77.55;96359.38;5052097;28;20099;-68
2020/12/02 04:04:39;;;;;;;49.60;18.30;;;;;;;-0.40;77.55;96358.38;5052377;28;20056;-67
2020/12/02 04:07:05;;;;;;;50.00;17.50;;;;;;;-0.46;77.40;96364.72;5051739;28;20044;-68
2020/12/02 04:09:32;;;;;;;47.42;17.60;;;;;;;-0.40;77.40;96368.28;5052474;28;20044;-67
2020/12/02 04:11:58;;;;;;;45.33;17.25;;;;;;;-0.38;77.19;96366.97;5052289;28;20499;-67
2020/12/02 04:14:24;;;;;;;51.85;19.42;;;;;;;-0.32;76.97;96368.63;5051918;28;20037;-67
2020/12/02 04:16:50;;;;;;;51.20;18.67;;;;;;;-0.35;76.44;96366.47;5052316;28;20048;-67
2020/12/02 04:19:16;;;;;;;52.88;20.85;;;;;;;-0.32;76.44;96363.28;5051957;28;20077;-67
2020/12/02 04:21:42;;;;;;;59.17;21.08;;;;;;;-0.35;76.42;96355.78;5052198;28;20037;-67
2020/12/02 04:24:08;;;;;;;58.50;21.45;;;;;;;-0.36;76.57;96354.16;5051671;28;20037;-67
2020/12/02 04:26:35;;;;;;;53.75;19.75;;;;;;;-0.37;76.28;96355.19;5032800;28;20412;-67
2020/12/02 04:29:01;;;;;;;57.25;21.45;;;;;;;-0.33;76.18;96353.66;5031690;28;20064;-69
2020/12/02 04:31:27;;;;;;;52.50;20.55;;;;;;;-0.34;76.00;96344.00;5032229;28;20049;-67
2020/12/02 04:33:53;;;;;;;58.35;21.95;;;;;;;-0.32;75.92;96344.56;5032095;28;20463;-67
2020/12/02 04:36:19;;;;;;;61.55;22.38;;;;;;;-0.35;75.70;96344.28;5031511;28;20053;-67
2020/12/02 04:38:45;;;;;;;62.13;23.33;;;;;;;-0.37;75.53;96343.69;5031867;28;20065;-67
2020/12/02 04:41:14;;;;;;;58.90;22.58;;;;;;;-0.40;75.61;96331.63;5031527;28;20041;-67
2020/12/02 04:43:45;;;;;;;52.63;20.77;;;;;;;-0.35;75.94;96338.91;5032012;28;20065;-67
2020/12/02 04:46:14;;;;;;;60.88;22.15;;;;;;;-0.34;76.00;96333.31;5031545;28;20623;-67
2020/12/02 04:48:42;;;;;;;61.97;23.58;;;;;;;-0.30;75.95;96331.75;5031784;28;20412;-67
2020/12/02 04:51:14;;;;;;;61.30;23.13;;;;;;;-0.27;75.99;96325.88;5031253;28;20087;-68
2020/12/02 04:53:44;;;;;;;54.50;21.98;;;;;;;-0.21;75.93;96317.91;5031798;28;20052;-67
2020/12/02 04:56:10;;;;;;;55.58;21.30;;;;;;;-0.18;75.72;96322.78;5045020;28;20044;-68
2020/12/02 04:58:38;;;;;;;59.55;22.75;;;;;;;-0.15;75.78;96322.28;5051637;28;20045;-67
2020/12/02 05:01:16;;;;;;;60.13;22.40;;;;;;;-0.15;75.08;96316.94;5050991;28;20041;-68
2020/12/02 05:03:51;;;;;;;57.85;21.92;;;;;;;-0.21;74.96;96312.56;5051367;28;20045;-67
2020/12/02 05:06:22;;;;;;;58.20;23.65;;;;;;;-0.23;74.92;96306.66;5050559;28;20055;-67
2020/12/02 05:08:48;;;;;;;63.25;23.23;;;;;;;-0.25;74.96;96306.13;5051415;28;20408;-67
2020/12/02 05:11:14;;;;;;;57.67;22.52;;;;;;;-0.21;74.94;96312.56;5050283;28;20037;-67
2020/12/02 05:13:40;;;;;;;56.05;22.23;;;;;;;-0.24;74.74;96313.09;5051227;28;20675;-67
2020/12/02 05:16:08;;;;;;;57.25;22.23;;;;;;;-0.25;74.78;96312.28;5050600;28;20492;-68
2020/12/02 05:18:35;;;;;;;53.33;21.80;;;;;;;-0.23;74.58;96312.03;5051095;28;20056;-67
2020/12/02 05:21:18;;;;;;;60.08;21.73;;;;;;;-0.21;74.59;96308.03;5050754;28;20052;-68
2020/12/02 05:23:44;;;;;;;57.28;21.38;;;;;;;-0.29;74.32;96311.97;5051101;28;20045;-67
2020/12/02 05:26:17;;;;;;;58.90;23.55;;;;;;;-0.30;74.25;96314.91;5034454;28;20041;-67
2020/12/02 05:28:43;;;;;;;58.50;22.57;;;;;;;-0.25;74.18;96319.50;5031206;28;20048;-68
2020/12/02 05:31:13;;;;;;;55.42;21.92;;;;;;;-0.22;74.44;96321.66;5030482;28;20046;-68
2020/12/02 05:33:41;;;;;;;56.60;23.10;;;;;;;-0.24;74.06;96323.78;5031222;28;20045;-68
2020/12/02 05:36:13;;;;;;;58.03;22.77;;;;;;;-0.29;74.11;96322.66;5030352;28;20068;-68
2020/12/02 05:38:43;;;;;;;66.80;24.83;;;;;;;-0.31;74.23;96322.13;5030801;28;20044;-68
2020/12/02 05:41:12;;;;;;;59.65;24.40;;;;;;;-0.28;74.24;96318.94;5030471;28;20042;-68
2020/12/02 05:43:45;;;;;;;60.65;24.40;;;;;;;-0.28;74.13;96324.28;5030869;28;20210;-67
2020/12/02 05:46:17;;;;;;;64.28;24.23;;;;;;;-0.30;74.06;96325.59;5030225;28;20064;-68
2020/12/02 05:48:44;;;;;;;59.25;22.45;;;;;;;-0.34;74.04;96319.94;5030908;28;20045;-67
2020/12/02 05:51:15;;;;;;;57.72;21.67;;;;;;;-0.38;73.82;96318.00;5030147;28;20045;-67
2020/12/02 05:53:48;;;;;;;62.17;23.95;;;;;;;-0.40;73.78;96318.25;5030386;28;20041;-67
2020/12/02 05:56:14;;;;;;;;;;;;;;;-0.41;73.64;96316.66;5044599;28;20645;-68
2020/12/02 05:58:42;;;;;;;57.75;21.80;;;;;;;-0.47;73.31;96317.66;5050572;28;19920;-67
2020/12/02 06:01:10;;;;;;;62.05;24.08;;;;;;;-0.48;73.59;96313.31;5049713;28;20041;-67
2020/12/02 06:03:39;;;;;;;56.83;22.27;;;;;;;-0.47;73.58;96317.66;5050219;28;20052;-67
2020/12/02 06:06:11;;;;;;;53.65;21.30;;;;;;;-0.51;73.70;96313.84;5049560;28;20057;-67
2020/12/02 06:08:40;;;;;;;62.17;24.20;;;;;;;-0.50;73.66;96320.81;5050465;28;20051;-67
2020/12/02 06:11:31;;;;;;;63.30;23.52;;;;;;;-0.47;73.79;96314.97;5049739;28;20040;-68
2020/12/02 06:14:01;;;;;;;58.65;22.40;;;;;;;-0.49;73.81;96322.41;5050027;28;20060;-67
2020/12/02 06:16:36;;;;;;;56.67;22.73;;;;;;;-0.47;73.86;96325.66;5049883;28;20044;-67
2020/12/02 06:19:25;;;;;;;62.88;23.17;;;;;;;-0.46;74.18;96321.94;5049577;28;20072;-68
2020/12/02 06:21:54;;;;;;;58.55;23.23;;;;;;;-0.48;73.90;96334.72;5049365;28;20041;-68
2020/12/02 06:24:38;;;;;;;61.05;23.02;;;;;;;-0.47;74.29;96335.53;5048478;28;20051;-67
2020/12/02 06:27:42;;;;;;;60.17;23.40;;;;;;;-0.45;73.64;96341.47;5009563;28;20046;-68
2020/12/02 06:30:14;;;;;;;;;;;;;;;-0.46;73.88;96342.53;5010215;28;20045;-68
2020/12/02 06:32:57;;;;;;;60.80;21.92;;;;;;;-0.47;74.50;96346.22;5010203;28;19921;-67
2020/12/02 06:35:23;;;;;;;61.30;24.15;;;;;;;-0.46;74.60;96337.97;5009695;28;20405;-67
2020/12/02 06:38:12;;;;;;;59.25;24.15;;;;;;;-0.43;74.59;96339.34;5010146;28;20065;-67
2020/12/02 06:40:50;;;;;;;60.78;23.58;;;;;;;-0.43;74.08;96340.16;5009792;28;20048;-67
2020/12/02 06:43:17;;;;;;;62.63;26.25;;;;;;;-0.39;73.99;96337.78;5009660;28;20656;-67
2020/12/02 06:45:43;;;;;;;60.40;23.88;;;;;;;-0.39;73.81;96340.47;5009809;28;20493;-67
2020/12/02 06:48:14;;;;;;;57.92;23.58;;;;;;;-0.43;73.73;96340.16;5009763;28;20093;-68
2020/12/02 06:50:40;;;;;;;60.75;24.67;;;;;;;-0.44;73.77;96335.06;5010149;28;20049;-68
2020/12/02 06:53:16;;;;;;;61.03;24.92;;;;;;;-0.41;73.80;96331.88;5009703;28;20042;-68
2020/12/02 06:55:44;;;;;;;60.25;24.33;;;;;;;-0.37;73.54;96336.47;5031592;28;20044;-67
2020/12/02 06:58:13;;;;;;;64.45;26.27;;;;;;;-0.42;73.49;96332.94;5049209;28;20146;-73
2020/12/02 07:00:42;;;;;;;63.80;26.27;;;;;;;-0.43;73.68;96334.78;5049791;28;20040;-72
2020/12/02 07:03:23;;;;;;;63.00;23.40;;;;;;;-0.45;73.43;96333.44;5047919;28;20590;-72
2020/12/02 07:05:51;;;;;;;56.90;23.73;;;;;;;-0.45;73.46;96339.59;5048941;28;20099;-72
2020/12/02 07:08:25;;;;;;;57.22;23.75;;;;;;;-0.42;73.02;96338.28;5049007;28;20052;-72
2020/12/02 07:11:08;;;;;;;59.63;23.33;;;;;;;-0.41;73.14;96335.38;5049525;28;20045;-72
2020/12/02 07:13:37;;;;;;;60.00;22.80;;;;;;;-0.39;73.29;96333.25;5049651;28;20048;-72
2020/12/02 07:16:09;;;;;;;58.88;23.73;;;;;;;-0.36;73.00;96335.44;5049060;28;20041;-72
2020/12/02 07:18:35;;;;;;;54.60;22.13;;;;;;;-0.32;72.94;96338.41;5049516;28;20048;-72
2020/12/02 07:21:15;;;;;;;53.88;23.92;;;;;;;-0.31;73.08;96343.53;5049213;28;20048;-73
2020/12/02 07:23:42;;;;;;;70.65;25.17;;;;;;;-0.27;73.20;96336.59;5049424;28;20041;-72
2020/12/02 07:26:11;;;;;;;55.17;22.15;;;;;;;-0.29;72.88;96341.41;5033008;28;20500;-72
2020/12/02 07:28:37;;;;;;;58.90;24.48;;;;;;;-0.31;72.57;96343.53;5029637;28;20041;-72
2020/12/02 07:31:13;;;;;;;58.17;22.98;;;;;;;-0.32;72.27;96338.41;5029119;28;20057;-72
2020/12/02 07:33:41;;;;;;;61.75;23.20;;;;;;;-0.32;72.04;96333.84;5031010;28;20043;-72
2020/12/02 07:36:13;;;;;;;64.68;23.88;;;;;;;-0.31;72.13;96330.16;5031358;28;20053;-76
2020/12/02 07:38:39;;;;;;;48.33;18.25;;;;;;;-0.32;72.02;96333.84;5030521;28;20046;-72
2020/12/02 07:41:12;;;;;;;61.42;24.10;;;;;;;-0.28;72.14;96324.28;5029915;28;20534;-72
2020/12/02 07:43:40;;;;;;;67.43;25.23;;;;;;;-0.22;71.96;96324.34;5029498;28;20056;-72
2020/12/02 07:46:06;;;;;;;70.10;25.77;;;;;;;-0.23;72.27;96310.16;5029673;28;20050;-72
2020/12/02 07:48:33;;;;;;;66.47;24.77;;;;;;;-0.19;72.00;96305.13;5030286;28;20044;-73
2020/12/02 07:51:02;;;;;;;63.05;24.77;;;;;;;-0.15;72.83;96295.53;5030177;28;20041;-72
2020/12/02 07:53:39;;;;;;;73.43;26.67;;;;;;;-0.17;72.54;96289.59;5029703;28;20049;-72
2020/12/02 07:56:11;;;;;;;63.00;24.38;;;;;;;-0.21;71.42;96296.50;5042157;28;20162;-72
2020/12/02 07:58:40;;;;;;;55.33;22.13;;;;;;;-0.24;71.44;96305.88;5049872;28;20063;-72
2020/12/02 08:01:16;;;;;;;57.70;23.27;;;;;;;-0.22;71.42;96305.59;5049486;28;20048;-73
2020/12/02 08:03:43;;;;;;;60.72;23.10;;;;;;;-0.20;71.05;96309.66;5036904;28;20073;-72
2020/12/02 08:06:18;;;;;;;63.60;24.23;;;;;;;-0.21;70.47;96297.31;5029058;28;20508;-73
2020/12/02 08:08:44;;;;;;;56.83;23.08;;;;;;;-0.25;69.98;96306.94;5029763;28;20456;-72
2020/12/02 08:11:14;;;;;;;57.15;22.95;;;;;;;-0.29;70.03;96305.81;5029121;28;20049;-72
2020/12/02 08:13:46;;;;;;;57.58;23.70;;;;;;;-0.37;69.93;96293.66;5030149;28;20140;-72
2020/12/02 08:16:23;;;;;;;56.38;22.17;;;;;;;-0.38;70.06;96296.59;5029212;28;20079;-73
2020/12/02 08:18:52;;;;;;;57.13;22.23;;;;;;;-0.34;70.65;96287.03;5029463;28;20037;-72
2020/12/02 08:21:19;;;;;;;62.00;23.95;;;;;;;-0.25;70.60;96284.72;5029047;28;20053;-72
2020/12/02 08:24:02;;;;;;;64.38;24.02;;;;;;;-0.21;70.78;96281.25;5029498;28;20547;-73
2020/12/02 08:26:30;;;;;;;65.85;22.95;;;;;;;-0.14;71.06;96286.44;5028812;28;20543;-73
2020/12/02 08:29:03;;;;;;;61.70;23.63;;;;;;;-0.11;70.47;96285.91;5029469;28;20048;-72
2020/12/02 08:31:30;;;;;;;65.93;26.25;;;;;;;-0.11;70.31;96280.56;5028940;28;20057;-72
2020/12/02 08:34:17;;;;;;;60.75;25.20;;;;;;;-0.06;70.64;96283.28;5029380;28;20138;-72
2020/12/02 08:36:46;;;;;;;61.17;23.45;;;;;;;-0.04;70.60;96275.84;5029156;28;20044;-72
2020/12/02 08:39:13;;;;;;;72.90;27.25;;;;;;;-0.09;70.59;96273.13;5028606;28;20080;-73
2020/12/02 08:41:44;;;;;;;66.10;27.00;;;;;;;-0.01;70.80;96281.47;5029229;28;20512;-72
2020/12/02 08:44:12;;;;;;;71.15;25.95;;;;;;;-0.03;70.52;96282.81;5028862;28;20046;-73
2020/12/02 08:46:52;;;;;;;68.95;24.88;;;;;;;0.01;70.81;96273.22;5028005;28;20053;-72
2020/12/02 08:49:23;;;;;;;66.53;24.92;;;;;;;0.00;70.29;96287.66;5028346;28;20057;-72
2020/12/02 08:51:49;;;;;;;66.53;24.55;;;;;;;-0.02;69.23;96289.78;5028912;28;20049;-72
2020/12/02 08:54:17;;;;;;;64.97;23.23;;;;;;;-0.08;68.80;96290.78;5028358;28;20126;-73
2020/12/02 08:56:45;;;;;;;62.20;23.27;;;;;;;-0.14;68.82;96286.44;5046874;28;20064;-72
2020/12/02 08:59:13;;;;;;;63.28;23.05;;;;;;;-0.15;68.78;96295.53;5047866;28;20056;-72
2020/12/02 09:01:39;;;;;;;61.63;23.00;;;;;;;-0.15;68.47;96300.88;5048633;28;20037;-72
2020/12/02 09:04:06;;;;;;;59.92;22.05;;;;;;;-0.17;68.77;96297.63;5047965;28;20056;-72
2020/12/02 09:06:32;;;;;;;61.80;22.52;;;;;;;-0.22;68.07;96297.59;5048342;28;20059;-73
2020/12/02 09:08:58;;;;;;;59.63;22.50;;;;;;;-0.22;68.47;96286.88;5048354;28;20064;-73
2020/12/02 09:11:27;;;;;;;58.10;21.58;;;;;;;-0.17;68.67;96287.72;5048275;28;20492;-72
2020/12/02 09:13:54;;;;;;;62.78;23.70;;;;;;;-0.10;68.89;96284.88;5048268;28;20044;-73
2020/12/02 09:16:27;;;;;;;54.17;21.48;;;;;;;-0.09;68.57;96283.81;5047726;28;20060;-73
2020/12/02 09:18:54;;;;;;;55.35;21.77;;;;;;;-0.11;68.28;96280.56;5048170;28;20420;-73
2020/12/02 09:21:21;;;;;;;64.45;21.77;;;;;;;-0.11;68.28;96281.38;5047227;28;20049;-73
2020/12/02 09:23:47;;;;;;;53.92;21.75;;;;;;;-0.05;68.70;96279.59;5048198;28;20049;-73
2020/12/02 09:26:19;;;;;;;58.30;21.33;;;;;;;-0.14;67.93;96279.22;5030888;28;20049;-73
2020/12/02 09:28:45;;;;;;;55.67;21.55;;;;;;;-0.11;68.26;96276.03;5028238;28;20557;-73
2020/12/02 09:31:12;;;;;;;64.93;23.63;;;;;;;-0.08;68.21;96264.00;5027463;28;20056;-73
2020/12/02 09:33:38;;;;;;;64.18;23.70;;;;;;;-0.06;68.88;96267.25;5028068;28;20056;-73
2020/12/02 09:36:04;;;;;;;55.17;21.92;;;;;;;-0.07;68.71;96268.31;5027154;28;20136;-73
2020/12/02 09:38:31;;;;;;;62.97;22.40;;;;;;;-0.04;68.73;96259.78;5028091;28;20099;-73
2020/12/02 09:41:09;;;;;;;59.92;21.70;;;;;;;-0.02;68.97;96250.41;5028308;28;20052;-73
2020/12/02 09:43:52;;;;;;;64.82;23.40;;;;;;;0.00;68.83;96250.19;5027705;28;20481;-73
2020/12/02 09:46:19;;;;;;;;;;;;;;;0.04;69.59;96245.91;5027570;28;20129;-72
2020/12/02 09:48:46;;;;;;;54.10;21.02;;;;;;;-0.03;68.93;96248.00;5027951;28;19972;-72
2020/12/02 09:51:19;;;;;;;58.72;21.80;;;;;;;-0.03;68.80;96251.50;5027178;28;20045;-72
2020/12/02 09:53:47;;;;;;;56.47;22.23;;;;;;;0.00;69.02;96244.84;5027660;28;20056;-72
2020/12/02 09:56:14;;;;;;;58.90;20.65;;;;;;;0.01;68.78;96241.09;5040833;28;20052;-75
2020/12/02 09:58:39;;;;;;;53.30;19.85;;;;;;;0.03;68.30;96238.16;5047612;28;20049;-72
2020/12/02 10:01:13;;;;;;;56.70;20.13;;;;;;;0.08;67.84;96240.88;5046662;28;20064;-72
2020/12/02 10:04:14;;;;;;;53.58;20.08;;;;;;;0.08;67.49;96230.16;5047686;28;20072;-72
2020/12/02 10:06:59;;;;;;;55.38;20.77;;;;;;;0.03;67.63;96228.25;5046985;28;20045;-72
2020/12/02 10:09:52;;;;;;;52.25;19.73;;;;;;;0.04;68.15;96232.53;5046789;28;20053;-72
2020/12/02 10:12:32;;;;;;;52.67;20.65;;;;;;;0.04;67.69;96229.84;5046419;28;20088;-72
2020/12/02 10:15:15;;;;;;;51.95;20.02;;;;;;;0.01;66.99;96225.03;5047109;28;20587;-72
2020/12/02 10:18:29;;;;;;;46.67;18.63;;;;;;;0.09;67.53;96223.75;5046907;28;20041;-72
2020/12/02 10:21:00;;;;;;;;;;;;;;;0.15;67.11;96217.38;5047308;28;20052;-72
2020/12/02 10:23:44;;;;;;;43.42;18.50;;;;;;;0.11;67.18;96213.59;5055277;28;19931;-72
2020/12/02 10:26:43;;;;;;;49.95;18.58;;;;;;;0.13;67.25;96206.91;5030482;28;20053;-72
2020/12/02 10:29:13;;;;;;;54.92;19.13;;;;;;;0.04;66.14;96207.63;5026505;28;20439;-72
2020/12/02 10:31:56;;;;;;;45.90;18.90;;;;;;;0.04;65.89;96197.72;5027361;28;20045;-72
2020/12/02 10:34:24;;;;;;;52.33;19.15;;;;;;;0.08;66.43;96209.56;5026538;28;20050;-72
2020/12/02 10:36:56;;;;;;;48.45;18.77;;;;;;;0.09;66.66;96211.16;5026530;28;20046;-72
2020/12/02 10:39:27;;;;;;;47.65;18.45;;;;;;;0.09;66.10;96208.47;5026292;28;20052;-73
2020/12/02 10:42:17;;;;;;;50.60;19.92;;;;;;;0.04;66.76;96203.09;5027042;28;20107;-71
2020/12/02 10:45:02;;;;;;;49.70;19.08;;;;;;;0.07;67.32;96197.22;5032713;28;20042;-72
2020/12/02 10:47:59;;;;;;;53.20;19.55;;;;;;;0.09;66.57;96184.38;5026610;28;20128;-72
2020/12/02 10:50:29;;;;;;;46.33;19.58;;;;;;;0.08;66.23;96176.63;5026198;28;20594;-73
2020/12/02 10:52:58;;;;;;;51.78;19.08;;;;;;;0.01;66.60;96187.56;5027185;28;20443;-74
2020/12/02 10:55:26;;;;;;;50.97;18.92;;;;;;;-0.02;66.27;96188.03;5033766;28;20041;-73
2020/12/02 10:57:57;;;;;;;52.35;19.35;;;;;;;-0.01;66.34;96178.94;5046727;28;20044;-73
2020/12/02 11:00:23;;;;;;;49.80;18.73;;;;;;;0.00;66.10;96180.59;5046573;28;20044;-73
2020/12/02 11:03:10;;;;;;;49.53;19.27;;;;;;;-0.07;66.06;96182.66;5046494;28;20049;-73
2020/12/02 11:05:36;;;;;;;49.13;20.25;;;;;;;-0.02;66.76;96180.00;5046183;28;20326;-73
2020/12/02 11:08:07;;;;;;;48.97;19.42;;;;;;;-0.03;66.54;96165.03;5046248;28;20507;-73
2020/12/02 11:10:42;;;;;;;54.80;19.48;;;;;;;-0.10;65.60;96169.78;5050837;28;20052;-73
2020/12/02 11:13:22;;;;;;;53.97;19.20;;;;;;;-0.21;65.33;96168.88;5050069;28;20083;-73
2020/12/02 11:15:55;;;;;;;53.25;19.38;;;;;;;-0.24;65.69;96158.69;5050537;28;20060;-73
2020/12/02 11:18:43;;;;;;;47.25;19.10;;;;;;;-0.20;66.12;96159.00;5050267;28;20053;-73
2020/12/02 11:21:22;;;;;;;50.90;18.85;;;;;;;-0.24;66.00;96149.84;5050395;28;20045;-73
2020/12/02 11:24:09;;;;;;;53.17;19.52;;;;;;;-0.25;66.23;96145.56;5050550;28;20131;-73
2020/12/02 11:26:38;;;;;;;52.80;19.77;;;;;;;-0.24;66.39;96141.81;5030354;28;20045;-73
2020/12/02 11:29:07;;;;;;;50.58;18.55;;;;;;;-0.29;66.75;96146.06;5029690;28;20045;-73
2020/12/02 11:31:52;;;;;;;51.95;20.02;;;;;;;-0.31;66.88;96142.84;5019571;28;20038;-73
2020/12/02 11:34:34;;;;;;;50.78;18.80;;;;;;;-0.29;66.62;96140.72;5029652;28;20080;-73
2020/12/02 11:37:05;;;;;;;48.88;18.10;;;;;;;-0.25;66.82;96129.53;5030323;28;20633;-73